sensor_id;sensor_type;location;lat;lon;timestamp;pressure;altitude;pressure_sealevel;temperature;humidity
45888;BME280;31595;51.418;7.572;2022-09-27T00:01:44;98141.94;;;12.56;85.51
45888;BME280;31595;51.418;7.572;2022-09-27T00:04:13;98142.31;;;12.55;84.88
45888;BME280;31595;51.418;7.572;2022-09-27T00:06:40;98151.41;;;12.48;83.55
45888;BME280;31595;51.418;7.572;2022-09-27T00:09:09;98142.63;;;12.46;84.62
45888;BME280;31595;51.418;7.572;2022-09-27T00:11:40;98157.75;;;12.42;84.39
45888;BME280;31595;51.418;7.572;2022-09-27T00:14:10;98148.56;;;12.41;84.65
45888;BME280;31595;51.418;7.572;2022-09-27T00:16:42;98156.53;;;12.39;84.34
45888;BME280;31595;51.418;7.572;2022-09-27T00:19:13;98165.69;;;12.39;84.12
45888;BME280;31595;51.418;7.572;2022-09-27T00:21:42;98161.75;;;12.44;83.20
45888;BME280;31595;51.418;7.572;2022-09-27T00:24:11;98164.53;;;12.44;83.60
45888;BME280;31595;51.418;7.572;2022-09-27T00:26:39;98172.91;;;12.44;82.76
45888;BME280;31595;51.418;7.572;2022-09-27T00:29:12;98161.72;;;12.41;82.99
45888;BME280;31595;51.418;7.572;2022-09-27T00:31:40;98172.84;;;12.37;82.33
45888;BME280;31595;51.418;7.572;2022-09-27T00:34:12;98178.03;;;12.35;83.20
45888;BME280;31595;51.418;7.572;2022-09-27T00:36:44;98175.56;;;12.30;82.45
45888;BME280;31595;51.418;7.572;2022-09-27T00:39:12;98181.13;;;12.30;82.58
45888;BME280;31595;51.418;7.572;2022-09-27T00:41:43;98179.97;;;12.31;82.79
45888;BME280;31595;51.418;7.572;2022-09-27T00:47:27;98191.13;;;12.31;81.54
45888;BME280;31595;51.418;7.572;2022-09-27T00:49:59;98191.13;;;12.31;81.84
45888;BME280;31595;51.418;7.572;2022-09-27T00:52:34;98192.72;;;12.32;82.16
45888;BME280;31595;51.418;7.572;2022-09-27T00:55:10;98191.13;;;12.31;81.83
45888;BME280;31595;51.418;7.572;2022-09-27T00:57:40;98194.66;;;12.28;81.05
45888;BME280;31595;51.418;7.572;2022-09-27T01:00:09;98196.59;;;12.20;80.20
45888;BME280;31595;51.418;7.572;2022-09-27T01:02:41;98197.81;;;12.23;81.07
45888;BME280;31595;51.418;7.572;2022-09-27T01:05:11;98199.75;;;12.18;80.87
45888;BME280;31595;51.418;7.572;2022-09-27T01:07:41;98204.56;;;12.22;81.59
45888;BME280;31595;51.418;7.572;2022-09-27T01:10:09;98201.66;;;12.11;81.25
45888;BME280;31595;51.418;7.572;2022-09-27T01:12:45;98208.88;;;12.15;81.46
45888;BME280;31595;51.418;7.572;2022-09-27T01:15:22;98206.94;;;12.19;80.85
45888;BME280;31595;51.418;7.572;2022-09-27T01:18:04;98205.22;;;12.08;80.90
45888;BME280;31595;51.418;7.572;2022-09-27T01:20:51;98211.69;;;12.15;81.31
45888;BME280;31595;51.418;7.572;2022-09-27T01:23:38;98220.53;;;12.21;81.11
45888;BME280;31595;51.418;7.572;2022-09-27T01:26:21;98212.44;;;12.12;81.23
45888;BME280;31595;51.418;7.572;2022-09-27T01:28:58;98218.50;;;12.18;81.41
45888;BME280;31595;51.418;7.572;2022-09-27T01:31:36;98215.59;;;12.11;81.42
45888;BME280;31595;51.418;7.572;2022-09-27T01:34:09;98218.88;;;12.16;80.80
45888;BME280;31595;51.418;7.572;2022-09-27T01:36:45;98214.88;;;12.17;80.77
45888;BME280;31595;51.418;7.572;2022-09-27T01:39:27;98216.13;;;12.20;80.72
45888;BME280;31595;51.418;7.572;2022-09-27T01:42:03;98218.09;;;12.19;80.53
45888;BME280;31595;51.418;7.572;2022-09-27T01:44:37;98212.94;;;12.22;81.00
45888;BME280;31595;51.418;7.572;2022-09-27T01:47:15;98216.50;;;12.18;81.29
45888;BME280;31595;51.418;7.572;2022-09-27T01:49:47;98214.94;;;12.21;80.53
45888;BME280;31595;51.418;7.572;2022-09-27T01:52:21;98216.09;;;12.16;80.16
45888;BME280;31595;51.418;7.572;2022-09-27T01:54:53;98218.50;;;12.18;80.95
45888;BME280;31595;51.418;7.572;2022-09-27T01:57:34;98221.31;;;12.22;80.22
45888;BME280;31595;51.418;7.572;2022-09-27T02:00:05;98218.88;;;12.16;79.58
45888;BME280;31595;51.418;7.572;2022-09-27T02:02:38;98221.31;;;12.22;79.86
45888;BME280;31595;51.418;7.572;2022-09-27T02:05:09;98226.06;;;12.17;80.61
45888;BME280;31595;51.418;7.572;2022-09-27T02:07:41;98215.72;;;12.22;80.43
45888;BME280;31595;51.418;7.572;2022-09-27T02:10:12;98220.88;;;12.16;80.41
45888;BME280;31595;51.418;7.572;2022-09-27T02:12:46;98224.09;;;12.18;80.33
45888;BME280;31595;51.418;7.572;2022-09-27T02:15:17;98225.69;;;12.19;79.65
45888;BME280;31595;51.418;7.572;2022-09-27T02:17:54;98229.25;;;12.19;79.40
45888;BME280;31595;51.418;7.572;2022-09-27T02:20:28;98225.31;;;12.21;79.25
45888;BME280;31595;51.418;7.572;2022-09-27T02:23:06;98222.50;;;12.21;79.78
45888;BME280;31595;51.418;7.572;2022-09-27T02:25:41;98225.69;;;12.19;78.45
45888;BME280;31595;51.418;7.572;2022-09-27T02:28:18;98227.56;;;12.11;79.58
45888;BME280;31595;51.418;7.572;2022-09-27T02:30:49;98228.81;;;12.14;79.27
45888;BME280;31595;51.418;7.572;2022-09-27T02:33:20;98235.19;;;12.14;79.23
45888;BME280;31595;51.418;7.572;2022-09-27T02:35:49;98236.38;;;12.13;79.75
45888;BME280;31595;51.418;7.572;2022-09-27T02:38:16;98239.63;;;12.19;78.93
45888;BME280;31595;51.418;7.572;2022-09-27T02:40:47;98230.47;;;12.18;79.11
45888;BME280;31595;51.418;7.572;2022-09-27T02:43:16;98233.69;;;12.21;79.02
45888;BME280;31595;51.418;7.572;2022-09-27T02:45:54;98234.09;;;12.23;79.06
45888;BME280;31595;51.418;7.572;2022-09-27T02:48:30;98233.31;;;12.22;79.22
45888;BME280;31595;51.418;7.572;2022-09-27T02:51:15;98237.25;;;12.21;79.03
45888;BME280;31595;51.418;7.572;2022-09-27T02:54:02;98243.66;;;12.22;78.27
45888;BME280;31595;51.418;7.572;2022-09-27T02:56:41;98239.25;;;12.21;78.80
45888;BME280;31595;51.418;7.572;2022-09-27T02:59:22;98242.38;;;12.15;78.53
45888;BME280;31595;51.418;7.572;2022-09-27T03:02:03;98247.94;;;12.15;78.54
45888;BME280;31595;51.418;7.572;2022-09-27T03:04:39;98250.72;;;12.12;78.74
45888;BME280;31595;51.418;7.572;2022-09-27T03:07:10;98241.94;;;12.13;78.35
45888;BME280;31595;51.418;7.572;2022-09-27T03:09:41;98249.03;;;12.07;77.67
45888;BME280;31595;51.418;7.572;2022-09-27T03:12:09;98249.09;;;12.11;78.19
45888;BME280;31595;51.418;7.572;2022-09-27T03:14:36;98248.66;;;12.09;78.07
45888;BME280;31595;51.418;7.572;2022-09-27T03:17:04;98242.28;;;12.08;77.92
45888;BME280;31595;51.418;7.572;2022-09-27T03:19:31;98253.88;;;12.10;76.95
45888;BME280;31595;51.418;7.572;2022-09-27T03:22:00;98252.25;;;12.09;76.93
45888;BME280;31595;51.418;7.572;2022-09-27T03:24:27;98255.06;;;12.09;77.10
45888;BME280;31595;51.418;7.572;2022-09-27T03:26:55;98265.75;;;12.04;77.10
45888;BME280;31595;51.418;7.572;2022-09-27T03:29:22;98256.97;;;12.02;76.97
45888;BME280;31595;51.418;7.572;2022-09-27T03:31:50;98261.75;;;12.01;77.13
45888;BME280;31595;51.418;7.572;2022-09-27T03:34:17;98259.34;;;12.03;77.40
45888;BME280;31595;51.418;7.572;2022-09-27T03:36:44;98266.06;;;11.98;77.48
45888;BME280;31595;51.418;7.572;2022-09-27T03:39:13;98277.66;;;12.01;77.56
45888;BME280;31595;51.418;7.572;2022-09-27T03:41:40;98282.03;;;11.98;77.39
45888;BME280;31595;51.418;7.572;2022-09-27T03:44:08;98272.91;;;12.01;77.33
45888;BME280;31595;51.418;7.572;2022-09-27T03:46:35;98280.84;;;11.99;77.66
45888;BME280;31595;51.418;7.572;2022-09-27T03:49:03;98280.03;;;11.98;76.86
45888;BME280;31595;51.418;7.572;2022-09-27T03:51:30;98281.69;;;12.03;76.46
45888;BME280;31595;51.418;7.572;2022-09-27T03:53:57;98280.09;;;12.02;76.54
45888;BME280;31595;51.418;7.572;2022-09-27T03:56:26;98280.78;;;11.95;77.24
45888;BME280;31595;51.418;7.572;2022-09-27T03:58:54;98280.03;;;11.98;76.64
45888;BME280;31595;51.418;7.572;2022-09-27T04:01:21;98268.88;;;11.98;75.86
45888;BME280;31595;51.418;7.572;2022-09-27T04:03:48;98278.44;;;11.97;75.94
45888;BME280;31595;51.418;7.572;2022-09-27T04:06:16;98273.66;;;11.98;76.34
45888;BME280;31595;51.418;7.572;2022-09-27T04:08:44;98273.59;;;11.94;75.96
45888;BME280;31595;51.418;7.572;2022-09-27T04:11:12;98269.53;;;11.88;76.17
45888;BME280;31595;51.418;7.572;2022-09-27T04:13:41;98278.53;;;11.78;75.96
45888;BME280;31595;51.418;7.572;2022-09-27T04:16:09;98274.91;;;11.77;76.13
45888;BME280;31595;51.418;7.572;2022-09-27T04:18:36;98276.81;;;11.70;75.89
45888;BME280;31595;51.418;7.572;2022-09-27T04:21:04;98283.13;;;11.67;75.74
45888;BME280;31595;51.418;7.572;2022-09-27T04:23:31;98288.22;;;11.61;75.75
45888;BME280;31595;51.418;7.572;2022-09-27T04:25:59;98287.38;;;11.57;76.49
45888;BME280;31595;51.418;7.572;2022-09-27T04:28:26;98298.53;;;11.57;77.07
45888;BME280;31595;51.418;7.572;2022-09-27T04:30:56;98298.09;;;11.55;76.91
45888;BME280;31595;51.418;7.572;2022-09-27T04:33:24;98296.91;;;11.56;77.40
45888;BME280;31595;51.418;7.572;2022-09-27T04:35:51;98306.47;;;11.55;77.03
45888;BME280;31595;51.418;7.572;2022-09-27T04:38:36;98306.50;;;11.58;77.61
45888;BME280;31595;51.418;7.572;2022-09-27T04:41:04;98312.94;;;11.63;76.88
45888;BME280;31595;51.418;7.572;2022-09-27T04:43:32;98306.56;;;11.62;76.97
45888;BME280;31595;51.418;7.572;2022-09-27T04:46:01;98296.28;;;11.66;76.77
45888;BME280;31595;51.418;7.572;2022-09-27T04:48:28;98305.06;;;11.68;76.74
45888;BME280;31595;51.418;7.572;2022-09-27T04:50:56;98309.72;;;11.61;76.37
45888;BME280;31595;51.418;7.572;2022-09-27T04:53:24;98308.16;;;11.63;75.54
45888;BME280;31595;51.418;7.572;2022-09-27T04:55:52;98312.91;;;11.59;75.36
45888;BME280;31595;51.418;7.572;2022-09-27T04:58:20;98312.16;;;11.62;75.79
45888;BME280;31595;51.418;7.572;2022-09-27T05:00:48;98322.53;;;11.65;76.77
45888;BME280;31595;51.418;7.572;2022-09-27T05:03:18;98329.63;;;11.59;76.48
45888;BME280;31595;51.418;7.572;2022-09-27T05:05:46;98324.09;;;11.63;76.28
45888;BME280;31595;51.418;7.572;2022-09-27T05:08:13;98326.47;;;11.61;76.26
45888;BME280;31595;51.418;7.572;2022-09-27T05:10:40;98330.16;;;11.68;76.20
45888;BME280;31595;51.418;7.572;2022-09-27T05:13:08;98332.84;;;11.61;76.57
45888;BME280;31595;51.418;7.572;2022-09-27T05:15:35;98334.19;;;11.71;76.02
45888;BME280;31595;51.418;7.572;2022-09-27T05:18:03;98340.41;;;11.61;75.81
45888;BME280;31595;51.418;7.572;2022-09-27T05:20:33;98345.53;;;11.58;76.43
45888;BME280;31595;51.418;7.572;2022-09-27T05:23:00;98348.28;;;11.55;76.24
45888;BME280;31595;51.418;7.572;2022-09-27T05:25:28;98348.31;;;11.58;76.76
45888;BME280;31595;51.418;7.572;2022-09-27T05:27:56;98348.31;;;11.58;76.77
45888;BME280;31595;51.418;7.572;2022-09-27T05:30:24;98351.97;;;11.63;76.36
45888;BME280;31595;51.418;7.572;2022-09-27T05:32:52;98349.56;;;11.61;76.15
45888;BME280;31595;51.418;7.572;2022-09-27T05:35:20;98351.72;;;11.71;75.64
45888;BME280;31595;51.418;7.572;2022-09-27T05:37:53;98348.94;;;11.71;75.89
45888;BME280;31595;51.418;7.572;2022-09-27T05:40:20;98348.13;;;11.71;75.79
45888;BME280;31595;51.418;7.572;2022-09-27T05:42:50;98351.41;;;11.76;75.40
45888;BME280;31595;51.418;7.572;2022-09-27T05:45:18;98357.44;;;11.78;75.58
45888;BME280;31595;51.418;7.572;2022-09-27T05:47:52;98352.97;;;11.74;75.90
45888;BME280;31595;51.418;7.572;2022-09-27T05:50:20;98357.78;;;11.77;74.96
45888;BME280;31595;51.418;7.572;2022-09-27T05:52:47;98362.28;;;11.58;75.88
45888;BME280;31595;51.418;7.572;2022-09-27T05:55:16;98373.81;;;11.57;76.38
45888;BME280;31595;51.418;7.572;2022-09-27T05:57:53;98368.78;;;11.66;75.90
45888;BME280;31595;51.418;7.572;2022-09-27T06:00:21;98374.47;;;11.73;76.01
45888;BME280;31595;51.418;7.572;2022-09-27T06:02:55;98381.78;;;11.82;75.84
45888;BME280;31595;51.418;7.572;2022-09-27T06:05:25;98381.72;;;11.78;74.91
45888;BME280;31595;51.418;7.572;2022-09-27T06:07:57;98381.78;;;11.82;74.94
45888;BME280;31595;51.418;7.572;2022-09-27T06:10:27;98378.69;;;11.87;74.34
45888;BME280;31595;51.418;7.572;2022-09-27T06:12:58;98383.66;;;11.74;73.44
45888;BME280;31595;51.418;7.572;2022-09-27T06:15:27;98388.97;;;11.83;73.50
45888;BME280;31595;51.418;7.572;2022-09-27T06:17:55;98388.31;;;11.89;74.52
45888;BME280;31595;51.418;7.572;2022-09-27T06:20:23;98398.66;;;11.89;73.28
45888;BME280;31595;51.418;7.572;2022-09-27T06:22:51;98394.22;;;11.88;73.71
45888;BME280;31595;51.418;7.572;2022-09-27T06:25:19;98390.63;;;11.87;74.07
45888;BME280;31595;51.418;7.572;2022-09-27T06:27:48;98394.56;;;11.83;73.57
45888;BME280;31595;51.418;7.572;2022-09-27T06:30:15;98386.47;;;11.77;73.54
45888;BME280;31595;51.418;7.572;2022-09-27T06:32:43;98392.75;;;11.94;72.94
45888;BME280;31595;51.418;7.572;2022-09-27T06:35:10;98400.50;;;12.04;72.38
45888;BME280;31595;51.418;7.572;2022-09-27T06:37:37;98392.22;;;12.11;71.97
45888;BME280;31595;51.418;7.572;2022-09-27T06:40:06;98396.72;;;12.19;71.47
45888;BME280;31595;51.418;7.572;2022-09-27T06:42:34;98391.28;;;12.30;70.81
45888;BME280;31595;51.418;7.572;2022-09-27T06:45:03;98395.38;;;12.36;69.87
45888;BME280;31595;51.418;7.572;2022-09-27T06:47:34;98394.81;;;12.54;69.38
45888;BME280;31595;51.418;7.572;2022-09-27T06:50:02;98394.78;;;12.84;69.36
45888;BME280;31595;51.418;7.572;2022-09-27T06:52:30;98387.75;;;12.97;68.91
45888;BME280;31595;51.418;7.572;2022-09-27T06:54:58;98390.28;;;13.44;68.45
45888;BME280;31595;51.418;7.572;2022-09-27T06:57:25;98385.94;;;13.98;66.61
45888;BME280;31595;51.418;7.572;2022-09-27T07:00:12;98395.38;;;13.79;65.48
45888;BME280;31595;51.418;7.572;2022-09-27T07:02:53;98407.59;;;14.08;63.02
45888;BME280;31595;51.418;7.572;2022-09-27T07:05:23;98410.50;;;13.67;65.33
45888;BME280;31595;51.418;7.572;2022-09-27T07:07:51;98407.38;;;13.79;65.10
45888;BME280;31595;51.418;7.572;2022-09-27T07:10:23;98416.38;;;13.58;64.62
45888;BME280;31595;51.418;7.572;2022-09-27T07:12:51;98414.25;;;13.45;65.09
45888;BME280;31595;51.418;7.572;2022-09-27T07:15:21;98418.47;;;13.69;63.58
45888;BME280;31595;51.418;7.572;2022-09-27T07:17:55;98431.72;;;13.34;63.69
45888;BME280;31595;51.418;7.572;2022-09-27T07:20:23;98437.31;;;13.34;65.76
45888;BME280;31595;51.418;7.572;2022-09-27T07:22:50;98435.41;;;13.08;65.38
45888;BME280;31595;51.418;7.572;2022-09-27T07:25:18;98452.63;;;13.14;65.56
45888;BME280;31595;51.418;7.572;2022-09-27T07:27:45;98445.25;;;13.29;64.14
45888;BME280;31595;51.418;7.572;2022-09-27T07:30:13;98452.53;;;13.37;65.43
45888;BME280;31595;51.418;7.572;2022-09-27T07:32:42;98448.75;;;13.22;64.84
45888;BME280;31595;51.418;7.572;2022-09-27T07:35:11;98464.22;;;13.12;65.75
45888;BME280;31595;51.418;7.572;2022-09-27T07:37:40;98463.38;;;13.12;65.76
45888;BME280;31595;51.418;7.572;2022-09-27T07:40:09;98459.25;;;12.98;64.71
45888;BME280;31595;51.418;7.572;2022-09-27T07:42:37;98467.91;;;12.90;65.31
45888;BME280;31595;51.418;7.572;2022-09-27T07:45:07;98468.31;;;12.62;66.75
45888;BME280;31595;51.418;7.572;2022-09-27T07:47:36;98466.72;;;12.61;67.70
45888;BME280;31595;51.418;7.572;2022-09-27T07:50:06;98468.66;;;12.56;66.91
45888;BME280;31595;51.418;7.572;2022-09-27T07:52:38;98472.75;;;12.63;67.59
45888;BME280;31595;51.418;7.572;2022-09-27T07:55:07;98476.28;;;12.59;66.74
45888;BME280;31595;51.418;7.572;2022-09-27T07:57:34;98480.25;;;12.58;65.18
45888;BME280;31595;51.418;7.572;2022-09-27T08:00:03;98478.00;;;12.68;65.92
45888;BME280;31595;51.418;7.572;2022-09-27T08:02:30;98481.22;;;12.70;65.08
45888;BME280;31595;51.418;7.572;2022-09-27T08:04:58;98476.69;;;12.62;65.36
45888;BME280;31595;51.418;7.572;2022-09-27T08:07:27;98483.69;;;12.75;65.76
45888;BME280;31595;51.418;7.572;2022-09-27T08:09:55;98487.66;;;12.74;65.61
45888;BME280;31595;51.418;7.572;2022-09-27T08:12:23;98482.25;;;12.58;65.13
45888;BME280;31595;51.418;7.572;2022-09-27T08:14:51;98488.94;;;12.53;65.30
45888;BME280;31595;51.418;7.572;2022-09-27T08:17:19;98493.16;;;12.40;65.10
45888;BME280;31595;51.418;7.572;2022-09-27T08:19:46;98488.00;;;12.42;65.78
45888;BME280;31595;51.418;7.572;2022-09-27T08:22:14;98489.63;;;12.43;65.16
45888;BME280;31595;51.418;7.572;2022-09-27T08:24:43;98488.69;;;12.35;65.82
45888;BME280;31595;51.418;7.572;2022-09-27T08:27:10;98502.31;;;12.41;65.84
45888;BME280;31595;51.418;7.572;2022-09-27T08:29:38;98501.63;;;12.47;66.72
45888;BME280;31595;51.418;7.572;2022-09-27T08:32:06;98499.81;;;12.58;64.74
45888;BME280;31595;51.418;7.572;2022-09-27T08:34:34;98505.59;;;12.46;65.90
45888;BME280;31595;51.418;7.572;2022-09-27T08:37:02;98503.59;;;12.43;65.49
45888;BME280;31595;51.418;7.572;2022-09-27T08:39:29;98501.59;;;12.44;66.35
45888;BME280;31595;51.418;7.572;2022-09-27T08:42:03;98503.03;;;12.34;65.90
45888;BME280;31595;51.418;7.572;2022-09-27T08:44:37;98511.81;;;12.36;66.56
45888;BME280;31595;51.418;7.572;2022-09-27T08:47:13;98513.31;;;12.30;66.54
45888;BME280;31595;51.418;7.572;2022-09-27T08:49:46;98514.09;;;12.27;68.24
45888;BME280;31595;51.418;7.572;2022-09-27T08:52:19;98526.84;;;12.28;67.45
45888;BME280;31595;51.418;7.572;2022-09-27T08:54:49;98520.38;;;12.20;70.49
45888;BME280;31595;51.418;7.572;2022-09-27T08:57:18;98526.66;;;12.17;70.95
45888;BME280;31595;51.418;7.572;2022-09-27T08:59:53;98518.97;;;12.33;69.75
45888;BME280;31595;51.418;7.572;2022-09-27T09:02:23;98511.97;;;12.43;68.87
45888;BME280;31595;51.418;7.572;2022-09-27T09:04:54;98521.16;;;12.47;68.90
45888;BME280;31595;51.418;7.572;2022-09-27T09:07:39;98520.16;;;12.59;67.78
45888;BME280;31595;51.418;7.572;2022-09-27T09:10:22;98522.16;;;12.85;67.32
45888;BME280;31595;51.418;7.572;2022-09-27T09:13:22;98523.06;;;13.27;66.05
45888;BME280;31595;51.418;7.572;2022-09-27T09:15:58;98535.19;;;13.68;65.02
45888;BME280;31595;51.418;7.572;2022-09-27T09:18:43;98533.31;;;14.20;62.81
45888;BME280;31595;51.418;7.572;2022-09-27T09:21:23;98519.69;;;14.67;59.99
45888;BME280;31595;51.418;7.572;2022-09-27T09:24:02;98535.31;;;14.72;59.62
45888;BME280;31595;51.418;7.572;2022-09-27T09:26:39;98533.72;;;14.71;60.49
45888;BME280;31595;51.418;7.572;2022-09-27T09:29:33;98522.16;;;14.79;58.62
45888;BME280;31595;51.418;7.572;2022-09-27T09:32:11;98524.31;;;15.00;58.38
45888;BME280;31595;51.418;7.572;2022-09-27T09:34:46;98515.97;;;15.15;57.64
45888;BME280;31595;51.418;7.572;2022-09-27T09:37:19;98520.47;;;15.37;57.31
45888;BME280;31595;51.418;7.572;2022-09-27T09:39:52;98512.53;;;15.61;58.40
45888;BME280;31595;51.418;7.572;2022-09-27T09:42:24;98524.03;;;15.27;57.98
45888;BME280;31595;51.418;7.572;2022-09-27T09:44:58;98522.41;;;15.22;55.97
45888;BME280;31595;51.418;7.572;2022-09-27T09:47:32;98512.81;;;15.27;57.17
45888;BME280;31595;51.418;7.572;2022-09-27T09:50:05;98517.09;;;14.99;56.94
45888;BME280;31595;51.418;7.572;2022-09-27T09:52:44;98514.09;;;14.67;58.74
45888;BME280;31595;51.418;7.572;2022-09-27T09:55:18;98513.41;;;14.33;58.72
45888;BME280;31595;51.418;7.572;2022-09-27T09:57:54;98509.78;;;14.29;58.36
45888;BME280;31595;51.418;7.572;2022-09-27T10:00:25;98512.66;;;14.39;59.22
45888;BME280;31595;51.418;7.572;2022-09-27T10:02:54;98509.44;;;14.37;59.14
45888;BME280;31595;51.418;7.572;2022-09-27T10:05:25;98514.78;;;14.05;58.95
45888;BME280;31595;51.418;7.572;2022-09-27T10:07:56;98506.72;;;13.96;60.11
45888;BME280;31595;51.418;7.572;2022-09-27T10:10:24;98503.44;;;13.91;59.47
45888;BME280;31595;51.418;7.572;2022-09-27T10:12:52;98503.91;;;14.00;59.67
45888;BME280;31595;51.418;7.572;2022-09-27T10:15:22;98503.50;;;13.98;59.74
45888;BME280;31595;51.418;7.572;2022-09-27T10:17:53;98498.31;;;14.00;59.66
45888;BME280;31595;51.418;7.572;2022-09-27T10:20:30;98509.41;;;13.89;60.02
45888;BME280;31595;51.418;7.572;2022-09-27T10:23:04;98499.53;;;13.99;59.91
45888;BME280;31595;51.418;7.572;2022-09-27T10:25:45;98502.47;;;14.13;59.78
45888;BME280;31595;51.418;7.572;2022-09-27T10:28:29;98502.25;;;13.92;58.98
45888;BME280;31595;51.418;7.572;2022-09-27T10:31:00;98496.63;;;13.92;58.50
45888;BME280;31595;51.418;7.572;2022-09-27T10:33:30;98497.03;;;13.90;59.83
45888;BME280;31595;51.418;7.572;2022-09-27T10:35:57;98497.53;;;13.99;59.77
45888;BME280;31595;51.418;7.572;2022-09-27T10:38:28;98505.03;;;13.92;59.56
45888;BME280;31595;51.418;7.572;2022-09-27T10:40:58;98501.53;;;14.02;60.42
45888;BME280;31595;51.418;7.572;2022-09-27T10:43:41;98499.66;;;14.17;60.96
45888;BME280;31595;51.418;7.572;2022-09-27T10:46:12;98489.81;;;14.89;59.59
45888;BME280;31595;51.418;7.572;2022-09-27T10:48:43;98501.22;;;15.36;58.14
45888;BME280;31595;51.418;7.572;2022-09-27T10:51:22;98498.03;;;15.37;56.52
45888;BME280;31595;51.418;7.572;2022-09-27T10:53:51;98506.94;;;15.61;56.19
45888;BME280;31595;51.418;7.572;2022-09-27T10:56:25;98492.56;;;15.73;55.40
45888;BME280;31595;51.418;7.572;2022-09-27T10:58:53;98501.38;;;15.72;56.26
45888;BME280;31595;51.418;7.572;2022-09-27T11:01:22;98499.16;;;15.22;55.45
45888;BME280;31595;51.418;7.572;2022-09-27T11:03:54;98502.75;;;15.19;55.82
45888;BME280;31595;51.418;7.572;2022-09-27T11:06:28;98504.59;;;14.86;56.26
45888;BME280;31595;51.418;7.572;2022-09-27T11:09:11;98493.06;;;15.02;56.33
45888;BME280;31595;51.418;7.572;2022-09-27T11:11:43;98490.44;;;15.41;56.11
45888;BME280;31595;51.418;7.572;2022-09-27T11:14:19;98488.94;;;15.76;55.15
45888;BME280;31595;51.418;7.572;2022-09-27T11:16:53;98480.16;;;15.92;54.26
45888;BME280;31595;51.418;7.572;2022-09-27T11:19:39;98494.59;;;15.83;54.90
45888;BME280;31595;51.418;7.572;2022-09-27T11:22:24;98479.75;;;15.94;54.51
45888;BME280;31595;51.418;7.572;2022-09-27T11:25:05;98480.97;;;16.18;54.33
45888;BME280;31595;51.418;7.572;2022-09-27T11:27:45;98480.16;;;16.24;53.37
45888;BME280;31595;51.418;7.572;2022-09-27T11:30:19;98479.75;;;16.22;53.39
45888;BME280;31595;51.418;7.572;2022-09-27T11:33:10;98475.75;;;16.23;53.03
45888;BME280;31595;51.418;7.572;2022-09-27T11:35:53;98482.97;;;16.28;53.15
45888;BME280;31595;51.418;7.572;2022-09-27T11:38:24;98476.94;;;15.79;52.22
45888;BME280;31595;51.418;7.572;2022-09-27T11:41:13;98461.63;;;16.70;51.92
45888;BME280;31595;51.418;7.572;2022-09-27T11:44:03;98465.72;;;17.64;48.55
45888;BME280;31595;51.418;7.572;2022-09-27T11:46:35;98455.34;;;17.47;47.56
45888;BME280;31595;51.418;7.572;2022-09-27T11:49:24;98455.28;;;17.58;47.86
45888;BME280;31595;51.418;7.572;2022-09-27T11:52:21;98455.03;;;18.01;46.58
45888;BME280;31595;51.418;7.572;2022-09-27T11:55:07;98439.06;;;18.32;44.97
45888;BME280;31595;51.418;7.572;2022-09-27T11:57:42;98456.66;;;17.95;45.76
45888;BME280;31595;51.418;7.572;2022-09-27T12:00:29;98458.19;;;17.43;46.58
45888;BME280;31595;51.418;7.572;2022-09-27T12:03:29;98451.66;;;17.57;47.06
45888;BME280;31595;51.418;7.572;2022-09-27T12:06:11;98452.16;;;17.38;47.96
45888;BME280;31595;51.418;7.572;2022-09-27T12:08:48;98451.41;;;17.30;47.72
45888;BME280;31595;51.418;7.572;2022-09-27T12:11:21;98442.56;;;17.98;47.34
45888;BME280;31595;51.418;7.572;2022-09-27T12:13:53;98439.81;;;18.78;45.13
45888;BME280;31595;51.418;7.572;2022-09-27T12:16:25;98445.34;;;18.51;45.20
45888;BME280;31595;51.418;7.572;2022-09-27T12:18:54;98452.34;;;17.79;45.72
45888;BME280;31595;51.418;7.572;2022-09-27T12:21:23;98447.41;;;18.43;45.72
45888;BME280;31595;51.418;7.572;2022-09-27T12:23:54;98450.63;;;18.45;45.88
45888;BME280;31595;51.418;7.572;2022-09-27T12:26:27;98443.56;;;18.22;45.73
45888;BME280;31595;51.418;7.572;2022-09-27T12:28:58;98445.19;;;18.23;45.99
45888;BME280;31595;51.418;7.572;2022-09-27T12:31:30;98451.00;;;18.02;45.66
45888;BME280;31595;51.418;7.572;2022-09-27T12:34:05;98456.84;;;17.66;45.73
45888;BME280;31595;51.418;7.572;2022-09-27T12:36:38;98454.13;;;17.52;46.78
45888;BME280;31595;51.418;7.572;2022-09-27T12:39:16;98452.28;;;17.16;47.15
45888;BME280;31595;51.418;7.572;2022-09-27T12:41:50;98461.25;;;16.72;48.54
45888;BME280;31595;51.418;7.572;2022-09-27T12:44:21;98445.97;;;16.69;49.09
45888;BME280;31595;51.418;7.572;2022-09-27T12:46:58;98452.81;;;16.64;49.52
45888;BME280;31595;51.418;7.572;2022-09-27T12:49:41;98448.44;;;16.46;49.97
45888;BME280;31595;51.418;7.572;2022-09-27T12:52:16;98450.84;;;16.47;50.27
45888;BME280;31595;51.418;7.572;2022-09-27T12:55:00;98450.47;;;16.16;50.92
45888;BME280;31595;51.418;7.572;2022-09-27T12:57:41;98458.09;;;16.16;50.56
45888;BME280;31595;51.418;7.572;2022-09-27T13:00:15;98458.91;;;15.98;51.57
45888;BME280;31595;51.418;7.572;2022-09-27T13:09:10;98449.25;;;15.99;51.57
45888;BME280;31595;51.418;7.572;2022-09-27T13:11:46;98452.06;;;16.03;52.42
45888;BME280;31595;51.418;7.572;2022-09-27T13:14:20;98455.28;;;15.98;52.52
45888;BME280;31595;51.418;7.572;2022-09-27T13:16:48;98453.25;;;15.73;51.75
45888;BME280;31595;51.418;7.572;2022-09-27T13:19:38;98464.84;;;15.65;52.02
45888;BME280;31595;51.418;7.572;2022-09-27T13:22:09;98457.22;;;15.65;52.66
45888;BME280;31595;51.418;7.572;2022-09-27T13:24:48;98460.78;;;15.51;53.48
45888;BME280;31595;51.418;7.572;2022-09-27T13:27:47;98448.34;;;15.41;53.91
45888;BME280;31595;51.418;7.572;2022-09-27T13:30:44;98471.53;;;15.28;55.11
45888;BME280;31595;51.418;7.572;2022-09-27T13:33:41;98469.03;;;15.05;56.06
45888;BME280;31595;51.418;7.572;2022-09-27T13:36:19;98481.38;;;14.86;56.22
45888;BME280;31595;51.418;7.572;2022-09-27T13:38:54;98483.06;;;14.42;58.58